Station Historical Data
Daily Summary for January 14, 2017 Units:  English    Metric   Both
« Previous Day
Next Day »
Daily Weekly Monthly Yearly Custom
  High: Low: Average:
Temperature: 74.2 °F 54.0 °F 60.8 °F
Dew Point: 60.6 °F 50.5 °F 53.8 °F
Humidity: 94% 56% 79%
Wind Speed: 10.4mph 10.4mph 10.4mph
Wind Gust: 10.4mph - -
Wind- - SE
Pressure: 30.50 in 30.36 in -
Precipitation: 0.00 in    
Historical Graphs
 
 
Tabular Data for January 14, 2017
Time Temperature Dew Point Pressure Wind Wind Speed Wind Gust Humidity Rainfall Rate (Hourly) solar Conditions
00:05 56.1 °F 53.5 °F 30.48 in SSE 10.4 mph   91% 0.00 in 0.0 W/m2
00:10 56.1 °F 53.5 °F 30.48 in SSE 10.4 mph   91% 0.00 in 0.0 W/m2
00:20 55.9 °F 53.3 °F 30.47 in SSE 10.4 mph   91% 0.00 in 0.0 W/m2
00:25 55.8 °F 53.2 °F 30.47 in SSE 10.4 mph   91% 0.00 in 0.0 W/m2
00:30 56.1 °F 53.8 °F 30.47 in SSE 10.4 mph   92% 0.00 in 0.0 W/m2
00:35 56.5 °F 54.2 °F 30.47 in SSE 10.4 mph   92% 0.00 in 0.0 W/m2
00:40 56.4 °F 54.1 °F 30.47 in SSE 10.4 mph   92% 0.00 in 0.0 W/m2
00:45 56.1 °F 53.5 °F 30.47 in SSE 10.4 mph   91% 0.00 in 0.0 W/m2
00:50 55.7 °F 53.1 °F 30.47 in SSE 10.4 mph   91% 0.00 in 0.0 W/m2
00:55 55.4 °F 52.8 °F 30.47 in SSE 10.4 mph   91% 0.00 in 0.0 W/m2
01:01 55.1 °F 52.5 °F 30.47 in SSE 10.4 mph   91% 0.00 in 0.0 W/m2
01:06 54.9 °F 52.3 °F 30.47 in SSE 10.4 mph   91% 0.00 in 0.0 W/m2
01:11 54.9 °F 52.3 °F 30.47 in SSE 10.4 mph   91% 0.00 in 0.0 W/m2
01:16 54.8 °F 52.2 °F 30.47 in SSE 10.4 mph   91% 0.00 in 0.0 W/m2
01:21 54.0 °F 51.4 °F 30.47 in SSE 10.4 mph   91% 0.00 in 0.0 W/m2
01:26 54.0 °F 51.4 °F 30.47 in SSE 10.4 mph   91% 0.00 in 0.0 W/m2
01:31 54.0 °F 51.4 °F 30.47 in North 10.4 mph   91% 0.00 in 0.0 W/m2
01:36 54.0 °F 51.4 °F 30.47 in North 10.4 mph   91% 0.00 in 0.0 W/m2
01:41 54.0 °F 51.4 °F 30.47 in North 10.4 mph   91% 0.00 in 0.0 W/m2
01:46 54.0 °F 51.4 °F 30.47 in North 10.4 mph   91% 0.00 in 0.0 W/m2
01:51 54.0 °F 51.4 °F 30.47 in North 10.4 mph   91% 0.00 in 0.0 W/m2
01:57 54.0 °F 51.4 °F 30.47 in North 10.4 mph   91% 0.00 in 0.0 W/m2
02:02 54.0 °F 51.4 °F 30.47 in North 10.4 mph   91% 0.00 in 0.0 W/m2
02:07 54.0 °F 51.4 °F 30.47 in North 10.4 mph   91% 0.00 in 0.0 W/m2
02:12 54.0 °F 51.4 °F 30.47 in North 10.4 mph   91% 0.00 in 0.0 W/m2
02:17 54.0 °F 51.4 °F 30.47 in North 10.4 mph   91% 0.00 in 0.0 W/m2
02:22 54.0 °F 51.4 °F 30.47 in North 10.4 mph   91% 0.00 in 0.0 W/m2
02:27 54.0 °F 51.4 °F 30.47 in North 10.4 mph   91% 0.00 in 0.0 W/m2
02:32 54.0 °F 51.4 °F 30.47 in North 10.4 mph   91% 0.00 in 0.0 W/m2
02:37 54.0 °F 51.4 °F 30.47 in North 10.4 mph   91% 0.00 in 0.0 W/m2
02:42 54.0 °F 51.4 °F 30.47 in North 10.4 mph   91% 0.00 in 0.0 W/m2
02:47 54.0 °F 51.4 °F 30.47 in North 10.4 mph   91% 0.00 in 0.0 W/m2
02:52 54.0 °F 51.4 °F 30.47 in North 10.4 mph   91% 0.00 in 0.0 W/m2
02:57 54.0 °F 51.4 °F 30.47 in North 10.4 mph   91% 0.00 in 0.0 W/m2
03:02 54.0 °F 51.4 °F 30.47 in North 10.4 mph   91% 0.00 in 0.0 W/m2
03:07 54.0 °F 51.4 °F 30.47 in North 10.4 mph   91% 0.00 in 0.0 W/m2
03:13 54.0 °F 51.4 °F 30.47 in North 10.4 mph   91% 0.00 in 0.0 W/m2
03:18 54.0 °F 51.4 °F 30.47 in North 10.4 mph   91% 0.00 in 0.0 W/m2
03:23 54.0 °F 51.4 °F 30.47 in North 10.4 mph   91% 0.00 in 0.0 W/m2
03:28 54.0 °F 51.4 °F 30.47 in North 10.4 mph   91% 0.00 in 0.0 W/m2
03:33 54.0 °F 51.4 °F 30.47 in North 10.4 mph   91% 0.00 in 0.0 W/m2
03:38 54.0 °F 51.4 °F 30.46 in North 10.4 mph   91% 0.00 in 0.0 W/m2
03:43 54.0 °F 51.4 °F 30.46 in North 10.4 mph   91% 0.00 in 0.0 W/m2
03:48 54.0 °F 51.4 °F 30.47 in North 10.4 mph   91% 0.00 in 0.0 W/m2
03:53 54.0 °F 51.4 °F 30.47 in North 10.4 mph   91% 0.00 in 0.0 W/m2
03:58 54.0 °F 51.4 °F 30.46 in North 10.4 mph   91% 0.00 in 0.0 W/m2
04:03 54.0 °F 51.4 °F 30.46 in North 10.4 mph   91% 0.00 in 0.0 W/m2
04:08 54.0 °F 51.4 °F 30.46 in North 10.4 mph   91% 0.00 in 0.0 W/m2
04:13 54.0 °F 51.4 °F 30.46 in North 10.4 mph   91% 0.00 in 0.0 W/m2
04:18 54.0 °F 51.4 °F 30.46 in North 10.4 mph   91% 0.00 in 0.0 W/m2
04:23 54.0 °F 51.4 °F 30.46 in North 10.4 mph   91% 0.00 in 0.0 W/m2
04:29 54.0 °F 51.4 °F 30.46 in North 10.4 mph   91% 0.00 in 0.0 W/m2
04:34 54.0 °F 51.4 °F 30.46 in North 10.4 mph   91% 0.00 in 0.0 W/m2
04:39 54.0 °F 51.4 °F 30.46 in North 10.4 mph   91% 0.00 in 0.0 W/m2
04:44 54.0 °F 51.4 °F 30.46 in North 10.4 mph   91% 0.00 in 0.0 W/m2
04:49 54.0 °F 51.4 °F 30.46 in North 10.4 mph   91% 0.00 in 0.0 W/m2
04:54 54.0 °F 51.4 °F 30.46 in North 10.4 mph   91% 0.00 in 0.0 W/m2
04:59 54.0 °F 51.4 °F 30.46 in North 10.4 mph   91% 0.00 in 0.0 W/m2
05:04 54.0 °F 51.4 °F 30.46 in North 10.4 mph   91% 0.00 in 0.0 W/m2
05:09 54.0 °F 51.4 °F 30.46 in North 10.4 mph   91% 0.00 in 0.0 W/m2
05:14 54.0 °F 51.4 °F 30.46 in North 10.4 mph   91% 0.00 in 0.0 W/m2
05:19 54.0 °F 51.4 °F 30.46 in North 10.4 mph   91% 0.00 in 0.0 W/m2
05:25 54.0 °F 51.4 °F 30.46 in North 10.4 mph   91% 0.00 in 0.0 W/m2
05:30 54.0 °F 51.4 °F 30.46 in North 10.4 mph   91% 0.00 in 0.0 W/m2
05:35 54.0 °F 51.4 °F 30.46 in North 10.4 mph   91% 0.00 in 0.0 W/m2
05:40 54.0 °F 51.4 °F 30.46 in North 10.4 mph   91% 0.00 in 0.0 W/m2
05:45 54.0 °F 51.4 °F 30.46 in North 10.4 mph   91% 0.00 in 0.0 W/m2
05:50 54.0 °F 51.4 °F 30.46 in North 10.4 mph   91% 0.00 in 0.0 W/m2
05:55 54.0 °F 51.4 °F 30.46 in North 10.4 mph   91% 0.00 in 0.0 W/m2
06:00 54.0 °F 51.4 °F 30.46 in North 10.4 mph   91% 0.00 in 0.0 W/m2
06:05 54.0 °F 51.4 °F 30.46 in North 10.4 mph   91% 0.00 in 0.0 W/m2
06:10 54.0 °F 51.4 °F 30.46 in North 10.4 mph   91% 0.00 in 0.0 W/m2
06:15 54.0 °F 51.4 °F 30.46 in North 10.4 mph   91% 0.00 in 0.0 W/m2
06:20 54.0 °F 51.4 °F 30.46 in North 10.4 mph   91% 0.00 in 0.0 W/m2
06:25 54.0 °F 51.4 °F 30.46 in North 10.4 mph   91% 0.00 in 0.0 W/m2
06:31 54.0 °F 51.4 °F 30.47 in North 10.4 mph   91% 0.00 in 0.0 W/m2
06:36 54.0 °F 51.4 °F 30.47 in North 10.4 mph   91% 0.00 in 0.0 W/m2
06:41 54.0 °F 51.4 °F 30.47 in North 10.4 mph   91% 0.00 in 0.0 W/m2
06:46 54.0 °F 51.4 °F 30.46 in North 10.4 mph   91% 0.00 in 0.0 W/m2
06:51 54.0 °F 51.4 °F 30.47 in North 10.4 mph   91% 0.00 in 0.0 W/m2
06:56 54.0 °F 51.4 °F 30.47 in North 10.4 mph   91% 0.00 in 0.0 W/m2
07:01 54.0 °F 51.4 °F 30.47 in North 10.4 mph   91% 0.00 in 0.0 W/m2
07:06 54.0 °F 51.4 °F 30.47 in North 10.4 mph   91% 0.00 in 0.0 W/m2
07:11 54.0 °F 51.4 °F 30.47 in North 10.4 mph   91% 0.00 in 0.0 W/m2
07:16 54.0 °F 51.4 °F 30.47 in North 10.4 mph   91% 0.00 in 0.0 W/m2 CLR
07:21 54.0 °F 51.4 °F 30.47 in North 10.4 mph   91% 0.00 in 0.0 W/m2 CLR
07:26 54.0 °F 51.4 °F 30.48 in North 10.4 mph   91% 0.00 in 0.0 W/m2 CLR
07:32 54.0 °F 51.4 °F 30.48 in North 10.4 mph   91% 0.00 in 0.0 W/m2 CLR
07:37 54.0 °F 51.4 °F 30.48 in North 10.4 mph   91% 0.00 in 0.0 W/m2 CLR
07:42 54.0 °F 51.4 °F 30.48 in North 10.4 mph   91% 0.00 in 0.0 W/m2 CLR
07:47 54.0 °F 51.4 °F 30.48 in North 10.4 mph   91% 0.00 in 0.0 W/m2 CLR
07:52 54.0 °F 51.4 °F 30.48 in North 10.4 mph   91% 0.00 in 0.0 W/m2 CLR
07:57 54.0 °F 51.4 °F 30.48 in North 10.4 mph   91% 0.00 in 0.0 W/m2 CLR
08:02 54.0 °F 51.4 °F 30.48 in North 10.4 mph   91% 0.00 in 0.0 W/m2 CLR
08:07 54.0 °F 51.4 °F 30.48 in North 10.4 mph   91% 0.00 in 0.0 W/m2 CLR
08:12 54.0 °F 51.4 °F 30.48 in North 10.4 mph   91% 0.00 in 0.0 W/m2 CLR
08:17 54.0 °F 51.4 °F 30.48 in North 10.4 mph   91% 0.00 in 0.0 W/m2 CLR
08:23 54.0 °F 51.4 °F 30.48 in North 10.4 mph   91% 0.00 in 0.0 W/m2 CLR
08:28 54.0 °F 51.4 °F 30.48 in North 10.4 mph   91% 0.00 in 0.0 W/m2 CLR
08:33 54.0 °F 51.4 °F 30.48 in North 10.4 mph   91% 0.00 in 0.0 W/m2 CLR
08:38 54.0 °F 51.4 °F 30.49 in North 10.4 mph   91% 0.00 in 0.0 W/m2 CLR
08:43 54.0 °F 51.4 °F 30.49 in North 10.4 mph   91% 0.00 in 0.0 W/m2 CLR
08:48 54.0 °F 51.4 °F 30.49 in North 10.4 mph   91% 0.00 in 0.0 W/m2 CLR
08:53 54.0 °F 51.4 °F 30.49 in North 10.4 mph   91% 0.00 in 0.0 W/m2 CLR
08:58 54.0 °F 51.4 °F 30.49 in North 10.4 mph   91% 0.00 in 0.0 W/m2 CLR
09:03 54.0 °F 51.4 °F 30.49 in North 10.4 mph   91% 0.00 in 0.0 W/m2 OVC
09:08 54.0 °F 51.4 °F 30.49 in North 10.4 mph   91% 0.00 in 0.0 W/m2 OVC
09:13 54.0 °F 51.4 °F 30.49 in North 10.4 mph   91% 0.00 in 0.0 W/m2 OVC
09:18 55.6 °F 53.9 °F 30.49 in SSE 10.4 mph   94% 0.00 in 0.0 W/m2 OVC
09:23 55.9 °F 54.2 °F 30.49 in SSE 10.4 mph   94% 0.00 in 0.0 W/m2 OVC
09:28 56.2 °F 54.5 °F 30.49 in SSE 10.4 mph   94% 0.00 in 0.0 W/m2 OVC
09:33 56.3 °F 54.6 °F 30.49 in SSE 10.4 mph   94% 0.00 in 0.0 W/m2 OVC
09:38 56.6 °F 54.9 °F 30.49 in SSE 10.4 mph   94% 0.00 in 0.0 W/m2 OVC
09:43 57.0 °F 55.3 °F 30.49 in SSE 10.4 mph   94% 0.00 in 0.0 W/m2 OVC
09:49 57.2 °F 55.5 °F 30.49 in SSE 10.4 mph   94% 0.00 in 0.0 W/m2 OVC
09:54 57.7 °F 56.0 °F 30.50 in SSE 10.4 mph   94% 0.00 in 0.0 W/m2 OVC
09:59 58.1 °F 56.4 °F 30.50 in SSE 10.4 mph   94% 0.00 in 0.0 W/m2 OVC
10:04 58.4 °F 56.7 °F 30.49 in SSE 10.4 mph   94% 0.00 in 0.0 W/m2 OVC
10:09 58.9 °F 57.2 °F 30.49 in SSE 10.4 mph   94% 0.00 in 0.0 W/m2 OVC
10:14 59.4 °F 57.7 °F 30.50 in SSE 10.4 mph   94% 0.00 in 0.0 W/m2 OVC
10:19 60.0 °F 58.3 °F 30.50 in SSE 10.4 mph   94% 0.00 in 0.0 W/m2 OVC
10:24 60.7 °F 59.0 °F 30.49 in SSE 10.4 mph   94% 0.00 in 0.0 W/m2 OVC
10:29 61.3 °F 59.3 °F 30.49 in West 10.4 mph   93% 0.00 in 0.0 W/m2 OVC
10:34 61.9 °F 59.5 °F 30.49 in West 10.4 mph   92% 0.00 in 0.0 W/m2 OVC
10:39 63.0 °F 60.0 °F 30.49 in West 10.4 mph   90% 0.00 in 0.0 W/m2 OVC
10:44 63.8 °F 59.9 °F 30.49 in West 10.4 mph   87% 0.00 in 0.0 W/m2 OVC
10:49 64.2 °F 59.6 °F 30.49 in West 10.4 mph   85% 0.00 in 0.0 W/m2 OVC
10:54 64.5 °F 59.6 °F 30.49 in West 10.4 mph   84% 0.00 in 0.0 W/m2 OVC
10:59 65.2 °F 59.9 °F 30.49 in West 10.4 mph   83% 0.00 in 0.0 W/m2 OVC
11:04 66.9 °F 59.8 °F 30.49 in WNW 10.4 mph   78% 0.00 in 0.0 W/m2 OVC
11:09 68.5 °F 59.9 °F 30.49 in East 10.4 mph 10.4 mph 74% 0.00 in 0.0 W/m2 OVC
11:14 69.0 °F 59.2 °F 30.48 in SW 10.4 mph 10.4 mph 71% 0.00 in 0.0 W/m2 OVC
11:19 69.7 °F 60.3 °F 30.48 in NW 10.4 mph 10.4 mph 72% 0.00 in 0.0 W/m2 OVC
11:25 70.9 °F 60.6 °F 30.48 in ENE 10.4 mph 10.4 mph 70% 0.00 in 0.0 W/m2 OVC
11:30 71.3 °F 59.8 °F 30.48 in North 10.4 mph 10.4 mph 67% 0.00 in 0.0 W/m2 OVC
11:35 71.6 °F 59.6 °F 30.48 in SE 10.4 mph 10.4 mph 66% 0.00 in 0.0 W/m2 OVC
11:40 72.0 °F 60.0 °F 30.47 in ENE 10.4 mph 10.4 mph 66% 0.00 in 0.0 W/m2 OVC
11:45 72.3 °F 59.4 °F 30.47 in NE 10.4 mph 10.4 mph 64% 0.00 in 0.0 W/m2 OVC
11:50 72.3 °F 59.4 °F 30.47 in ENE 10.4 mph 10.4 mph 64% 0.00 in 0.0 W/m2 OVC
11:55 72.5 °F 59.6 °F 30.47 in ENE 10.4 mph   64% 0.00 in 0.0 W/m2 OVC
12:00 72.2 °F 59.3 °F 30.46 in East 10.4 mph   64% 0.00 in 0.0 W/m2 OVC
12:05 71.5 °F 59.1 °F 30.46 in South 10.4 mph   65% 0.00 in 0.0 W/m2 OVC
12:10 71.0 °F 58.6 °F 30.46 in ENE 10.4 mph   65% 0.00 in 0.0 W/m2 OVC
12:15 70.7 °F 59.2 °F 30.45 in SSE 10.4 mph   67% 0.00 in 0.0 W/m2 OVC
12:20 70.5 °F 59.0 °F 30.45 in SSE 10.4 mph   67% 0.00 in 0.0 W/m2 OVC
12:25 70.5 °F 59.0 °F 30.45 in SSE 10.4 mph   67% 0.00 in 0.0 W/m2 OVC
12:30 70.6 °F 59.1 °F 30.44 in SSE 10.4 mph   67% 0.00 in 0.0 W/m2 OVC
12:35 70.9 °F 58.5 °F 30.44 in SSE 10.4 mph 10.4 mph 65% 0.00 in 0.0 W/m2 OVC
12:40 71.2 °F 58.4 °F 30.44 in SSW 10.4 mph 10.4 mph 64% 0.00 in 0.0 W/m2 OVC
12:45 71.7 °F 58.0 °F 30.43 in SW 10.4 mph 10.4 mph 62% 0.00 in 0.0 W/m2 OVC
12:50 72.3 °F 58.5 °F 30.43 in NW 10.4 mph   62% 0.00 in 0.0 W/m2 OVC
12:56 73.5 °F 58.8 °F 30.42 in NW 10.4 mph   60% 0.00 in 0.0 W/m2 OVC
13:01 73.7 °F 58.9 °F 30.42 in NW 10.4 mph   60% 0.00 in 0.0 W/m2 OVC
13:06 73.7 °F 58.5 °F 30.42 in West 10.4 mph   59% 0.00 in 0.0 W/m2 OVC
13:11 74.2 °F 58.0 °F 30.41 in North 10.4 mph   57% 0.00 in 0.0 W/m2 OVC
13:16 73.9 °F 57.7 °F 30.41 in North 10.4 mph   57% 0.00 in 0.0 W/m2 OVC
13:21 73.1 °F 57.4 °F 30.41 in North 10.4 mph   58% 0.00 in 0.0 W/m2 OVC
13:26 72.7 °F 57.5 °F 30.41 in East 10.4 mph 10.4 mph 59% 0.00 in 0.0 W/m2 OVC
13:31 72.1 °F 57.4 °F 30.41 in ENE 10.4 mph   60% 0.00 in 0.0 W/m2 OVC
13:36 71.6 °F 57.0 °F 30.41 in ESE 10.4 mph   60% 0.00 in 0.0 W/m2 OVC
13:41 71.4 °F 57.2 °F 30.40 in SSE 10.4 mph 10.4 mph 61% 0.00 in 0.0 W/m2 OVC
13:46 71.1 °F 57.4 °F 30.40 in West 10.4 mph   62% 0.00 in 0.0 W/m2 OVC
13:51 71.0 °F 56.9 °F 30.40 in West 10.4 mph   61% 0.00 in 0.0 W/m2 OVC
13:56 70.9 °F 56.8 °F 30.40 in WSW 10.4 mph   61% 0.00 in 0.0 W/m2 OVC
14:01 71.0 °F 56.9 °F 30.39 in NW 10.4 mph   61% 0.00 in 0.0 W/m2 OVC
14:06 71.2 °F 57.1 °F 30.39 in NW 10.4 mph   61% 0.00 in 0.0 W/m2 OVC
14:12 71.3 °F 56.7 °F 30.39 in WNW 10.4 mph 10.4 mph 60% 0.00 in 0.0 W/m2 OVC
14:17 71.4 °F 56.8 °F 30.39 in East 10.4 mph 10.4 mph 60% 0.00 in 0.0 W/m2 OVC
14:22 71.2 °F 57.1 °F 30.39 in SW 10.4 mph 10.4 mph 61% 0.00 in 0.0 W/m2 OVC
14:27 71.0 °F 56.9 °F 30.39 in SW 10.4 mph   61% 0.00 in 0.0 W/m2 OVC
14:32 71.0 °F 57.3 °F 30.39 in WSW 10.4 mph   62% 0.00 in 0.0 W/m2 OVC
14:37 70.9 °F 57.2 °F 30.39 in WSW 10.4 mph   62% 0.00 in 0.0 W/m2 OVC
14:42 70.6 °F 56.0 °F 30.39 in SW 10.4 mph   60% 0.00 in 0.0 W/m2 OVC
14:47 70.5 °F 56.9 °F 30.39 in SW 10.4 mph   62% 0.00 in 0.0 W/m2 OVC
14:52 70.2 °F 56.1 °F 30.38 in SW 10.4 mph   61% 0.00 in 0.0 W/m2 OVC
14:57 70.1 °F 56.5 °F 30.38 in SW 10.4 mph   62% 0.00 in 0.0 W/m2 OVC
15:02 70.3 °F 57.1 °F 30.38 in SW 10.4 mph   63% 0.00 in 0.0 W/m2 OVC
15:07 70.6 °F 56.9 °F 30.38 in SW 10.4 mph   62% 0.00 in 0.0 W/m2 OVC
15:12 71.0 °F 55.5 °F 30.38 in SW 10.4 mph   58% 0.00 in 0.0 W/m2 OVC
15:17 71.2 °F 55.2 °F 30.38 in SW 10.4 mph   57% 0.00 in 0.0 W/m2 OVC
15:22 71.3 °F 55.3 °F 30.38 in NNE 10.4 mph 10.4 mph 57% 0.00 in 0.0 W/m2 OVC
15:28 71.3 °F 55.3 °F 30.38 in NNE 10.4 mph   57% 0.00 in 0.0 W/m2 OVC
15:33 71.3 °F 55.8 °F 30.38 in NNE 10.4 mph   58% 0.00 in 0.0 W/m2 OVC
15:38 71.4 °F 54.9 °F 30.38 in NNE 10.4 mph 10.4 mph 56% 0.00 in 0.0 W/m2 OVC
15:40 71.3 °F 54.8 °F 30.38 in NNE 10.4 mph   56% 0.00 in 0.0 W/m2 OVC
15:45 71.3 °F 55.3 °F 30.38 in NNE 10.4 mph   57% 0.00 in 0.0 W/m2 OVC
15:50 71.2 °F 55.7 °F 30.38 in NNE 10.4 mph   58% 0.00 in 0.0 W/m2 OVC
15:55 71.2 °F 55.7 °F 30.38 in NNE 10.4 mph   58% 0.00 in 0.0 W/m2 OVC
16:00 71.2 °F 56.6 °F 30.37 in NNE 10.4 mph   60% 0.00 in 0.0 W/m2 CLR
16:05 71.1 °F 56.0 °F 30.37 in NNE 10.4 mph   59% 0.00 in 0.0 W/m2 CLR
16:10 71.0 °F 55.9 °F 30.38 in NNE 10.4 mph   59% 0.00 in 0.0 W/m2 CLR
16:16 70.8 °F 56.7 °F 30.38 in NNE 10.4 mph   61% 0.00 in 0.0 W/m2 CLR
16:21 70.7 °F 57.0 °F 30.38 in NNE 10.4 mph   62% 0.00 in 0.0 W/m2 CLR
16:26 70.7 °F 56.6 °F 30.38 in NNE 10.4 mph   61% 0.00 in 0.0 W/m2 CLR
16:31 70.5 °F 55.5 °F 30.38 in North 10.4 mph   59% 0.00 in 0.0 W/m2 CLR
16:36 70.4 °F 55.8 °F 30.38 in NNW 10.4 mph 10.4 mph 60% 0.00 in 0.0 W/m2 CLR
16:41 70.3 °F 55.3 °F 30.38 in NNW 10.4 mph   59% 0.00 in 0.0 W/m2 CLR
16:46 70.3 °F 55.3 °F 30.38 in NNW 10.4 mph 10.4 mph 59% 0.00 in 0.0 W/m2 CLR
16:51 70.3 °F 55.8 °F 30.38 in SW 10.4 mph   60% 0.00 in 0.0 W/m2 CLR
16:56 70.2 °F 56.1 °F 30.38 in SW 10.4 mph   61% 0.00 in 0.0 W/m2 CLR
17:01 70.1 °F 55.1 °F 30.38 in SW 10.4 mph   59% 0.00 in 0.0 W/m2 CLR
17:06 69.9 °F 55.4 °F 30.38 in West 10.4 mph 10.4 mph 60% 0.00 in 0.0 W/m2 CLR
17:11 69.6 °F 54.6 °F 30.38 in West 10.4 mph   59% 0.00 in 0.0 W/m2 CLR
17:16 69.3 °F 54.8 °F 30.38 in West 10.4 mph   60% 0.00 in 0.0 W/m2 CLR
17:22 69.0 °F 55.0 °F 30.38 in West 10.4 mph   61% 0.00 in 0.0 W/m2 CLR
17:27 68.4 °F 54.9 °F 30.38 in West 10.4 mph   62% 0.00 in 0.0 W/m2 CLR
17:32 68.0 °F 54.5 °F 30.38 in West 10.4 mph   62% 0.00 in 0.0 W/m2 CLR
17:37 67.5 °F 54.5 °F 30.38 in West 10.4 mph   63% 0.00 in 0.0 W/m2 CLR
17:42 67.0 °F 54.4 °F 30.38 in West 10.4 mph   64% 0.00 in 0.0 W/m2 CLR
17:47 66.5 °F 53.9 °F 30.38 in West 10.4 mph   64% 0.00 in 0.0 W/m2 CLR
17:52 65.9 °F 53.8 °F 30.39 in West 10.4 mph   65% 0.00 in 0.0 W/m2 CLR
17:57 65.4 °F 53.7 °F 30.39 in West 10.4 mph   66% 0.00 in 0.0 W/m2 CLR
18:02 65.0 °F 53.8 °F 30.39 in West 10.4 mph   67% 0.00 in 0.0 W/m2
18:07 64.6 °F 53.4 °F 30.38 in West 10.4 mph   67% 0.00 in 0.0 W/m2
18:12 64.2 °F 53.4 °F 30.39 in West 10.4 mph   68% 0.00 in 0.0 W/m2
18:17 64.0 °F 53.2 °F 30.38 in West 10.4 mph   68% 0.00 in 0.0 W/m2
18:22 63.7 °F 53.3 °F 30.39 in West 10.4 mph   69% 0.00 in 0.0 W/m2
18:27 63.3 °F 53.0 °F 30.39 in West 10.4 mph   69% 0.00 in 0.0 W/m2
18:32 63.0 °F 53.1 °F 30.39 in West 10.4 mph   70% 0.00 in 0.0 W/m2
18:37 62.7 °F 52.8 °F 30.39 in West 10.4 mph   70% 0.00 in 0.0 W/m2
18:43 62.4 °F 52.9 °F 30.39 in West 10.4 mph   71% 0.00 in 0.0 W/m2
18:48 62.2 °F 53.1 °F 30.39 in West 10.4 mph   72% 0.00 in 0.0 W/m2
18:53 62.0 °F 52.9 °F 30.39 in West 10.4 mph   72% 0.00 in 0.0 W/m2
18:58 61.8 °F 53.1 °F 30.39 in West 10.4 mph   73% 0.00 in 0.0 W/m2
19:03 61.6 °F 52.9 °F 30.39 in West 10.4 mph   73% 0.00 in 0.0 W/m2
19:08 61.3 °F 52.9 °F 30.39 in West 10.4 mph   74% 0.00 in 0.0 W/m2
19:13 61.5 °F 53.1 °F 30.39 in West 10.4 mph   74% 0.00 in 0.0 W/m2
19:18 61.4 °F 53.0 °F 30.39 in West 10.4 mph   74% 0.00 in 0.0 W/m2
19:23 61.2 °F 52.8 °F 30.39 in West 10.4 mph   74% 0.00 in 0.0 W/m2
19:28 61.0 °F 53.0 °F 30.39 in West 10.4 mph   75% 0.00 in 0.0 W/m2
19:33 60.8 °F 52.8 °F 30.39 in West 10.4 mph   75% 0.00 in 0.0 W/m2
19:38 60.5 °F 52.9 °F 30.39 in West 10.4 mph   76% 0.00 in 0.0 W/m2
19:44 60.3 °F 52.7 °F 30.39 in West 10.4 mph   76% 0.00 in 0.0 W/m2
19:48 60.1 °F 52.9 °F 30.39 in West 10.4 mph   77% 0.00 in 0.0 W/m2
19:54 60.0 °F 52.8 °F 30.39 in West 10.4 mph   77% 0.00 in 0.0 W/m2
19:59 59.8 °F 52.6 °F 30.39 in West 10.4 mph   77% 0.00 in 0.0 W/m2
20:04 59.7 °F 52.5 °F 30.39 in West 10.4 mph   77% 0.00 in 0.0 W/m2
20:09 59.7 °F 52.8 °F 30.39 in West 10.4 mph   78% 0.00 in 0.0 W/m2
20:14 59.7 °F 52.8 °F 30.39 in West 10.4 mph   78% 0.00 in 0.0 W/m2
20:19 59.6 °F 52.7 °F 30.39 in West 10.4 mph   78% 0.00 in 0.0 W/m2
20:24 59.5 °F 52.6 °F 30.39 in West 10.4 mph   78% 0.00 in 0.0 W/m2
20:29 59.5 °F 52.6 °F 30.39 in West 10.4 mph   78% 0.00 in 0.0 W/m2
20:34 59.5 °F 52.6 °F 30.39 in West 10.4 mph   78% 0.00 in 0.0 W/m2
20:39 59.4 °F 52.5 °F 30.39 in West 10.4 mph   78% 0.00 in 0.0 W/m2
20:44 59.5 °F 52.6 °F 30.39 in West 10.4 mph   78% 0.00 in 0.0 W/m2
20:49 59.4 °F 52.5 °F 30.39 in West 10.4 mph   78% 0.00 in 0.0 W/m2
20:54 59.4 °F 52.5 °F 30.39 in West 10.4 mph   78% 0.00 in 0.0 W/m2
21:00 59.4 °F 52.5 °F 30.39 in West 10.4 mph   78% 0.00 in 0.0 W/m2
21:05 59.3 °F 52.4 °F 30.39 in West 10.4 mph   78% 0.00 in 0.0 W/m2
21:10 59.3 °F 52.4 °F 30.39 in West 10.4 mph   78% 0.00 in 0.0 W/m2
21:15 59.3 °F 52.4 °F 30.39 in West 10.4 mph   78% 0.00 in 0.0 W/m2
21:20 59.3 °F 52.8 °F 30.39 in West 10.4 mph   79% 0.00 in 0.0 W/m2
21:25 59.2 °F 52.7 °F 30.39 in West 10.4 mph   79% 0.00 in 0.0 W/m2
21:30 59.2 °F 52.7 °F 30.39 in West 10.4 mph   79% 0.00 in 0.0 W/m2
21:35 59.1 °F 52.6 °F 30.39 in West 10.4 mph   79% 0.00 in 0.0 W/m2
21:41 59.1 °F 52.6 °F 30.39 in West 10.4 mph   79% 0.00 in 0.0 W/m2
21:46 59.1 °F 52.6 °F 30.39 in West 10.4 mph   79% 0.00 in 0.0 W/m2
21:51 59.0 °F 52.5 °F 30.39 in West 10.4 mph   79% 0.00 in 0.0 W/m2
21:56 58.9 °F 52.4 °F 30.39 in West 10.4 mph   79% 0.00 in 0.0 W/m2
22:01 58.7 °F 52.2 °F 30.39 in West 10.4 mph   79% 0.00 in 0.0 W/m2
22:06 58.5 °F 52.0 °F 30.38 in West 10.4 mph   79% 0.00 in 0.0 W/m2
22:11 58.3 °F 52.2 °F 30.38 in West 10.4 mph   80% 0.00 in 0.0 W/m2
22:16 58.1 °F 52.0 °F 30.38 in West 10.4 mph   80% 0.00 in 0.0 W/m2
22:21 57.9 °F 51.8 °F 30.38 in West 10.4 mph   80% 0.00 in 0.0 W/m2
22:26 57.6 °F 51.8 °F 30.38 in West 10.4 mph   81% 0.00 in 0.0 W/m2
22:31 57.5 °F 51.7 °F 30.38 in West 10.4 mph   81% 0.00 in 0.0 W/m2
22:36 57.6 °F 51.8 °F 30.38 in West 10.4 mph   81% 0.00 in 0.0 W/m2
22:41 57.6 °F 51.8 °F 30.38 in West 10.4 mph   81% 0.00 in 0.0 W/m2
22:46 57.6 °F 51.5 °F 30.38 in West 10.4 mph   80% 0.00 in 0.0 W/m2
22:51 57.6 °F 51.5 °F 30.38 in West 10.4 mph   80% 0.00 in 0.0 W/m2
22:56 57.5 °F 51.4 °F 30.38 in West 10.4 mph   80% 0.00 in 0.0 W/m2
23:01 57.2 °F 51.1 °F 30.38 in West 10.4 mph   80% 0.00 in 0.0 W/m2
23:07 57.0 °F 51.2 °F 30.38 in West 10.4 mph   81% 0.00 in 0.0 W/m2
23:12 56.8 °F 51.4 °F 30.38 in West 10.4 mph   82% 0.00 in 0.0 W/m2
23:17 56.6 °F 51.2 °F 30.37 in West 10.4 mph   82% 0.00 in 0.0 W/m2
23:22 56.4 °F 51.0 °F 30.37 in West 10.4 mph   82% 0.00 in 0.0 W/m2
23:27 56.2 °F 51.1 °F 30.37 in West 10.4 mph   83% 0.00 in 0.0 W/m2
23:32 55.6 °F 50.5 °F 30.37 in West 10.4 mph   83% 0.00 in 0.0 W/m2
23:37 55.3 °F 50.5 °F 30.37 in West 10.4 mph   84% 0.00 in 0.0 W/m2
23:42 55.3 °F 50.5 °F 30.37 in West 10.4 mph   84% 0.00 in 0.0 W/m2
23:47 55.3 °F 50.5 °F 30.37 in North 10.4 mph   84% 0.00 in 0.0 W/m2
23:52 55.3 °F 50.5 °F 30.36 in North 10.4 mph   84% 0.00 in 0.0 W/m2
23:57 55.3 °F 50.5 °F 30.36 in North 10.4 mph   84% 0.00 in 0.0 W/m2
Piedmont Bend
Compliments of Weather Underground - 4 mb